sensor_id;sensor_type;location;lat;lon;timestamp;P1;durP1;ratioP1;P2;durP2;ratioP2
6902;SDS011;20232;49.408;8.702;2024-01-30T05:00:45;11.17;;;7.63;;
6902;SDS011;20232;49.408;8.702;2024-01-30T05:03:11;10.93;;;7.47;;
6902;SDS011;20232;49.408;8.702;2024-01-30T05:05:37;9.83;;;7.20;;
6902;SDS011;20232;49.408;8.702;2024-01-30T05:08:02;10.03;;;7.20;;
6902;SDS011;20232;49.408;8.702;2024-01-30T05:10:28;8.90;;;6.43;;
6902;SDS011;20232;49.408;8.702;2024-01-30T05:12:53;9.40;;;6.77;;
6902;SDS011;20232;49.408;8.702;2024-01-30T05:15:19;6.77;;;6.07;;
6902;SDS011;20232;49.408;8.702;2024-01-30T05:17:44;11.57;;;7.07;;
6902;SDS011;20232;49.408;8.702;2024-01-30T05:20:10;8.07;;;6.93;;
6902;SDS011;20232;49.408;8.702;2024-01-30T05:22:36;8.23;;;6.50;;
6902;SDS011;20232;49.408;8.702;2024-01-30T05:25:01;11.53;;;6.97;;
6902;SDS011;20232;49.408;8.702;2024-01-30T05:27:26;8.33;;;6.40;;
6902;SDS011;20232;49.408;8.702;2024-01-30T05:29:52;9.50;;;6.60;;
6902;SDS011;20232;49.408;8.702;2024-01-30T05:32:17;8.77;;;6.60;;
6902;SDS011;20232;49.408;8.702;2024-01-30T05:34:43;7.10;;;6.20;;
6902;SDS011;20232;49.408;8.702;2024-01-30T05:37:08;8.20;;;6.70;;
6902;SDS011;20232;49.408;8.702;2024-01-30T05:39:34;9.03;;;7.10;;
6902;SDS011;20232;49.408;8.702;2024-01-30T05:41:59;10.07;;;6.60;;
6902;SDS011;20232;49.408;8.702;2024-01-30T05:44:25;10.17;;;7.43;;
6902;SDS011;20232;49.408;8.702;2024-01-30T05:46:50;8.57;;;6.97;;
6902;SDS011;20232;49.408;8.702;2024-01-30T05:49:15;7.63;;;6.83;;
6902;SDS011;20232;49.408;8.702;2024-01-30T05:51:41;7.77;;;6.90;;
6902;SDS011;20232;49.408;8.702;2024-01-30T05:54:06;10.07;;;7.03;;
6902;SDS011;20232;49.408;8.702;2024-01-30T05:56:32;9.70;;;7.33;;
6902;SDS011;20232;49.408;8.702;2024-01-30T05:58:57;10.37;;;8.10;;
6902;SDS011;20232;49.408;8.702;2024-01-30T06:01:23;12.23;;;6.90;;
6902;SDS011;20232;49.408;8.702;2024-01-30T06:03:48;10.13;;;7.60;;
6902;SDS011;20232;49.408;8.702;2024-01-30T06:06:13;9.27;;;7.47;;
6902;SDS011;20232;49.408;8.702;2024-01-30T06:08:39;10.00;;;7.53;;
6902;SDS011;20232;49.408;8.702;2024-01-30T06:11:04;9.37;;;7.37;;
6902;SDS011;20232;49.408;8.702;2024-01-30T06:13:29;9.63;;;7.10;;
6902;SDS011;20232;49.408;8.702;2024-01-30T06:15:57;11.37;;;7.30;;
6902;SDS011;20232;49.408;8.702;2024-01-30T06:18:22;9.30;;;7.17;;
6902;SDS011;20232;49.408;8.702;2024-01-30T06:20:47;11.17;;;7.10;;
6902;SDS011;20232;49.408;8.702;2024-01-30T06:23:13;8.53;;;7.07;;
6902;SDS011;20232;49.408;8.702;2024-01-30T06:25:39;9.37;;;7.17;;
6902;SDS011;20232;49.408;8.702;2024-01-30T06:28:05;12.17;;;7.87;;
6902;SDS011;20232;49.408;8.702;2024-01-30T06:30:30;7.73;;;6.93;;
6902;SDS011;20232;49.408;8.702;2024-01-30T06:32:55;8.97;;;7.53;;
6902;SDS011;20232;49.408;8.702;2024-01-30T06:35:21;11.67;;;7.77;;
6902;SDS011;20232;49.408;8.702;2024-01-30T06:37:47;8.87;;;7.30;;
6902;SDS011;20232;49.408;8.702;2024-01-30T06:40:12;10.63;;;7.33;;
6902;SDS011;20232;49.408;8.702;2024-01-30T06:42:37;8.63;;;7.60;;
6902;SDS011;20232;49.408;8.702;2024-01-30T06:45:03;8.60;;;7.73;;
6902;SDS011;20232;49.408;8.702;2024-01-30T06:47:29;11.97;;;7.63;;
6902;SDS011;20232;49.408;8.702;2024-01-30T06:49:56;8.20;;;7.33;;
6902;SDS011;20232;49.408;8.702;2024-01-30T06:52:21;10.53;;;8.33;;
6902;SDS011;20232;49.408;8.702;2024-01-30T06:54:46;9.37;;;7.70;;
6902;SDS011;20232;49.408;8.702;2024-01-30T06:57:12;11.87;;;7.97;;
6902;SDS011;20232;49.408;8.702;2024-01-30T06:59:39;10.67;;;7.70;;
6902;SDS011;20232;49.408;8.702;2024-01-30T07:02:09;9.53;;;7.80;;
6902;SDS011;20232;49.408;8.702;2024-01-30T07:04:35;12.57;;;8.10;;
6902;SDS011;20232;49.408;8.702;2024-01-30T07:07:02;12.83;;;9.10;;
6902;SDS011;20232;49.408;8.702;2024-01-30T07:09:30;13.25;;;10.10;;
6902;SDS011;20232;49.408;8.702;2024-01-30T07:11:55;10.00;;;8.83;;
6902;SDS011;20232;49.408;8.702;2024-01-30T07:14:23;10.93;;;7.77;;
6902;SDS011;20232;49.408;8.702;2024-01-30T07:16:49;10.77;;;8.70;;
6902;SDS011;20232;49.408;8.702;2024-01-30T07:19:15;14.50;;;8.40;;
6902;SDS011;20232;49.408;8.702;2024-01-30T07:21:40;9.17;;;7.67;;
6902;SDS011;20232;49.408;8.702;2024-01-30T07:24:06;8.63;;;7.40;;
6902;SDS011;20232;49.408;8.702;2024-01-30T07:26:31;9.30;;;7.77;;
6902;SDS011;20232;49.408;8.702;2024-01-30T07:28:57;11.80;;;8.10;;
6902;SDS011;20232;49.408;8.702;2024-01-30T07:31:22;8.70;;;7.80;;
6902;SDS011;20232;49.408;8.702;2024-01-30T07:33:48;8.90;;;8.00;;
6902;SDS011;20232;49.408;8.702;2024-01-30T07:36:13;11.97;;;8.20;;
6902;SDS011;20232;49.408;8.702;2024-01-30T07:38:39;9.67;;;7.70;;
6902;SDS011;20232;49.408;8.702;2024-01-30T07:41:05;9.73;;;8.10;;
6902;SDS011;20232;49.408;8.702;2024-01-30T07:43:30;9.93;;;8.13;;
6902;SDS011;20232;49.408;8.702;2024-01-30T07:45:56;11.77;;;8.50;;
6902;SDS011;20232;49.408;8.702;2024-01-30T07:48:21;11.40;;;8.37;;
6902;SDS011;20232;49.408;8.702;2024-01-30T07:50:47;11.37;;;8.43;;
6902;SDS011;20232;49.408;8.702;2024-01-30T07:53:12;10.27;;;8.30;;
6902;SDS011;20232;49.408;8.702;2024-01-30T07:55:37;9.73;;;8.30;;
6902;SDS011;20232;49.408;8.702;2024-01-30T07:58:03;11.30;;;9.10;;
6902;SDS011;20232;49.408;8.702;2024-01-30T08:00:29;10.93;;;8.13;;
6902;SDS011;20232;49.408;8.702;2024-01-30T08:02:55;9.43;;;8.23;;
6902;SDS011;20232;49.408;8.702;2024-01-30T08:05:21;10.40;;;9.00;;
6902;SDS011;20232;49.408;8.702;2024-01-30T08:07:49;11.80;;;9.03;;
6902;SDS011;20232;49.408;8.702;2024-01-30T08:10:15;10.03;;;7.90;;
6902;SDS011;20232;49.408;8.702;2024-01-30T08:12:41;10.90;;;8.20;;
6902;SDS011;20232;49.408;8.702;2024-01-30T08:15:06;9.93;;;8.00;;
6902;SDS011;20232;49.408;8.702;2024-01-30T08:17:32;12.47;;;7.70;;
6902;SDS011;20232;49.408;8.702;2024-01-30T08:19:58;11.23;;;8.10;;
6902;SDS011;20232;49.408;8.702;2024-01-30T08:22:24;9.97;;;7.67;;
6902;SDS011;20232;49.408;8.702;2024-01-30T08:24:49;9.60;;;8.00;;
6902;SDS011;20232;49.408;8.702;2024-01-30T08:27:14;10.50;;;8.37;;
6902;SDS011;20232;49.408;8.702;2024-01-30T08:29:40;9.77;;;8.30;;
6902;SDS011;20232;49.408;8.702;2024-01-30T08:32:05;9.07;;;8.13;;
6902;SDS011;20232;49.408;8.702;2024-01-30T08:34:31;8.67;;;7.60;;
6902;SDS011;20232;49.408;8.702;2024-01-30T08:36:57;11.07;;;7.87;;
6902;SDS011;20232;49.408;8.702;2024-01-30T08:39:22;9.13;;;7.90;;
6902;SDS011;20232;49.408;8.702;2024-01-30T08:41:47;11.27;;;8.63;;
6902;SDS011;20232;49.408;8.702;2024-01-30T08:44:13;11.97;;;8.67;;
6902;SDS011;20232;49.408;8.702;2024-01-30T08:46:38;9.37;;;8.30;;
6902;SDS011;20232;49.408;8.702;2024-01-30T08:49:04;10.43;;;7.73;;
6902;SDS011;20232;49.408;8.702;2024-01-30T08:51:30;11.90;;;7.70;;
6902;SDS011;20232;49.408;8.702;2024-01-30T08:53:55;10.57;;;8.20;;
6902;SDS011;20232;49.408;8.702;2024-01-30T08:56:21;10.83;;;8.03;;
6902;SDS011;20232;49.408;8.702;2024-01-30T08:58:46;11.57;;;8.67;;
6902;SDS011;20232;49.408;8.702;2024-01-30T09:01:11;13.63;;;8.50;;
6902;SDS011;20232;49.408;8.702;2024-01-30T09:03:37;9.97;;;8.07;;
6902;SDS011;20232;49.408;8.702;2024-01-30T09:06:08;10.27;;;7.73;;
6902;SDS011;20232;49.408;8.702;2024-01-30T09:08:34;10.13;;;7.87;;
6902;SDS011;20232;49.408;8.702;2024-01-30T09:10:59;10.30;;;7.70;;
6902;SDS011;20232;49.408;8.702;2024-01-30T09:13:24;9.53;;;7.73;;
6902;SDS011;20232;49.408;8.702;2024-01-30T09:15:50;10.13;;;7.57;;
6902;SDS011;20232;49.408;8.702;2024-01-30T09:18:15;9.17;;;7.40;;
6902;SDS011;20232;49.408;8.702;2024-01-30T09:20:41;8.43;;;7.40;;
6902;SDS011;20232;49.408;8.702;2024-01-30T09:23:06;9.93;;;8.00;;
6902;SDS011;20232;49.408;8.702;2024-01-30T09:25:32;11.00;;;7.70;;
6902;SDS011;20232;49.408;8.702;2024-01-30T09:27:58;10.17;;;7.47;;
6902;SDS011;20232;49.408;8.702;2024-01-30T09:30:24;9.30;;;7.80;;
6902;SDS011;20232;49.408;8.702;2024-01-30T09:32:49;9.93;;;8.23;;
6902;SDS011;20232;49.408;8.702;2024-01-30T09:35:14;10.70;;;7.67;;
6902;SDS011;20232;49.408;8.702;2024-01-30T09:37:40;14.63;;;8.40;;
6902;SDS011;20232;49.408;8.702;2024-01-30T09:40:06;11.23;;;7.70;;
6902;SDS011;20232;49.408;8.702;2024-01-30T09:42:33;10.17;;;6.93;;
6902;SDS011;20232;49.408;8.702;2024-01-30T09:45:02;9.87;;;7.90;;
6902;SDS011;20232;49.408;8.702;2024-01-30T09:47:32;8.87;;;7.40;;
6902;SDS011;20232;49.408;8.702;2024-01-30T09:50:05;8.97;;;7.37;;
6902;SDS011;20232;49.408;8.702;2024-01-30T09:52:31;9.07;;;7.60;;
6902;SDS011;20232;49.408;8.702;2024-01-30T09:54:56;9.10;;;7.70;;
6902;SDS011;20232;49.408;8.702;2024-01-30T09:57:24;8.90;;;7.73;;
6902;SDS011;20232;49.408;8.702;2024-01-30T09:59:51;10.67;;;7.70;;
6902;SDS011;20232;49.408;8.702;2024-01-30T10:02:17;10.67;;;7.57;;
6902;SDS011;20232;49.408;8.702;2024-01-30T10:04:43;9.77;;;8.57;;
6902;SDS011;20232;49.408;8.702;2024-01-30T10:07:08;9.17;;;7.37;;
6902;SDS011;20232;49.408;8.702;2024-01-30T10:09:36;10.43;;;7.20;;
6902;SDS011;20232;49.408;8.702;2024-01-30T10:12:02;10.40;;;7.70;;
6902;SDS011;20232;49.408;8.702;2024-01-30T10:14:28;8.17;;;7.10;;
6902;SDS011;20232;49.408;8.702;2024-01-30T10:16:55;9.20;;;7.60;;
6902;SDS011;20232;49.408;8.702;2024-01-30T10:19:20;8.40;;;6.70;;
6902;SDS011;20232;49.408;8.702;2024-01-30T10:21:46;8.17;;;6.97;;
6902;SDS011;20232;49.408;8.702;2024-01-30T10:24:11;9.27;;;7.37;;
6902;SDS011;20232;49.408;8.702;2024-01-30T10:26:39;9.53;;;7.63;;
6902;SDS011;20232;49.408;8.702;2024-01-30T10:29:04;8.60;;;7.47;;
6902;SDS011;20232;49.408;8.702;2024-01-30T10:31:30;8.13;;;7.17;;
6902;SDS011;20232;49.408;8.702;2024-01-30T10:33:56;8.30;;;6.97;;
6902;SDS011;20232;49.408;8.702;2024-01-30T10:36:22;8.73;;;7.30;;
6902;SDS011;20232;49.408;8.702;2024-01-30T10:38:53;7.93;;;7.13;;
6902;SDS011;20232;49.408;8.702;2024-01-30T10:41:23;8.73;;;7.80;;
6902;SDS011;20232;49.408;8.702;2024-01-30T10:43:58;9.13;;;7.83;;
6902;SDS011;20232;49.408;8.702;2024-01-30T10:46:29;8.30;;;7.50;;
6902;SDS011;20232;49.408;8.702;2024-01-30T10:48:58;12.43;;;7.77;;
6902;SDS011;20232;49.408;8.702;2024-01-30T10:51:26;8.83;;;7.63;;
6902;SDS011;20232;49.408;8.702;2024-01-30T10:53:52;8.00;;;7.17;;
6902;SDS011;20232;49.408;8.702;2024-01-30T10:56:22;8.70;;;7.17;;
6902;SDS011;20232;49.408;8.702;2024-01-30T10:58:51;10.00;;;7.67;;
6902;SDS011;20232;49.408;8.702;2024-01-30T11:01:20;10.77;;;7.83;;
6902;SDS011;20232;49.408;8.702;2024-01-30T11:03:51;10.33;;;7.93;;
6902;SDS011;20232;49.408;8.702;2024-01-30T11:06:16;11.53;;;7.60;;
6902;SDS011;20232;49.408;8.702;2024-01-30T11:08:46;10.07;;;7.70;;
6902;SDS011;20232;49.408;8.702;2024-01-30T11:11:12;11.33;;;7.87;;
6902;SDS011;20232;49.408;8.702;2024-01-30T11:13:37;9.17;;;7.37;;
6902;SDS011;20232;49.408;8.702;2024-01-30T11:16:03;10.27;;;7.93;;
6902;SDS011;20232;49.408;8.702;2024-01-30T11:18:30;10.60;;;7.80;;
6902;SDS011;20232;49.408;8.702;2024-01-30T11:20:57;10.33;;;8.07;;
6902;SDS011;20232;49.408;8.702;2024-01-30T11:23:23;10.07;;;8.20;;
6902;SDS011;20232;49.408;8.702;2024-01-30T11:25:49;10.33;;;7.63;;
6902;SDS011;20232;49.408;8.702;2024-01-30T11:28:14;8.53;;;7.13;;
6902;SDS011;20232;49.408;8.702;2024-01-30T11:30:43;13.17;;;8.37;;
6902;SDS011;20232;49.408;8.702;2024-01-30T11:35:39;13.63;;;7.50;;
6902;SDS011;20232;49.408;8.702;2024-01-30T11:38:05;10.37;;;8.13;;
6902;SDS011;20232;49.408;8.702;2024-01-30T11:40:32;10.67;;;7.67;;
6902;SDS011;20232;49.408;8.702;2024-01-30T11:42:59;10.27;;;8.07;;
6902;SDS011;20232;49.408;8.702;2024-01-30T11:45:26;11.37;;;7.87;;
6902;SDS011;20232;49.408;8.702;2024-01-30T11:47:52;8.70;;;7.30;;
6902;SDS011;20232;49.408;8.702;2024-01-30T11:50:17;12.20;;;7.87;;
6902;SDS011;20232;49.408;8.702;2024-01-30T11:52:43;11.70;;;7.77;;
6902;SDS011;20232;49.408;8.702;2024-01-30T11:55:09;8.60;;;7.33;;
6902;SDS011;20232;49.408;8.702;2024-01-30T11:57:35;10.00;;;7.50;;
6902;SDS011;20232;49.408;8.702;2024-01-30T12:00:05;11.03;;;8.40;;
6902;SDS011;20232;49.408;8.702;2024-01-30T12:02:39;9.03;;;7.47;;
6902;SDS011;20232;49.408;8.702;2024-01-30T12:05:08;10.70;;;7.90;;
6902;SDS011;20232;49.408;8.702;2024-01-30T12:07:34;10.77;;;7.60;;
6902;SDS011;20232;49.408;8.702;2024-01-30T12:10:00;9.47;;;7.40;;
6902;SDS011;20232;49.408;8.702;2024-01-30T12:12:26;10.27;;;7.73;;
6902;SDS011;20232;49.408;8.702;2024-01-30T12:14:52;9.10;;;7.90;;
6902;SDS011;20232;49.408;8.702;2024-01-30T12:17:26;10.30;;;7.97;;
6902;SDS011;20232;49.408;8.702;2024-01-30T12:20:06;10.37;;;7.63;;
6902;SDS011;20232;49.408;8.702;2024-01-30T12:22:36;9.73;;;7.43;;
6902;SDS011;20232;49.408;8.702;2024-01-30T12:25:10;9.73;;;7.70;;
6902;SDS011;20232;49.408;8.702;2024-01-30T12:27:37;12.27;;;7.53;;
6902;SDS011;20232;49.408;8.702;2024-01-30T12:30:06;9.97;;;7.73;;
6902;SDS011;20232;49.408;8.702;2024-01-30T12:32:34;11.40;;;7.20;;
6902;SDS011;20232;49.408;8.702;2024-01-30T12:35:01;8.47;;;7.23;;
6902;SDS011;20232;49.408;8.702;2024-01-30T12:37:26;10.53;;;7.67;;
6902;SDS011;20232;49.408;8.702;2024-01-30T12:39:52;10.90;;;7.90;;
6902;SDS011;20232;49.408;8.702;2024-01-30T12:42:19;10.27;;;7.20;;
6902;SDS011;20232;49.408;8.702;2024-01-30T12:44:45;12.83;;;7.90;;
6902;SDS011;20232;49.408;8.702;2024-01-30T12:47:10;10.70;;;7.30;;
6902;SDS011;20232;49.408;8.702;2024-01-30T12:49:36;8.70;;;7.07;;
6902;SDS011;20232;49.408;8.702;2024-01-30T12:52:01;9.23;;;6.90;;
6902;SDS011;20232;49.408;8.702;2024-01-30T12:54:27;12.70;;;7.60;;
6902;SDS011;20232;49.408;8.702;2024-01-30T12:56:53;9.23;;;7.17;;
6902;SDS011;20232;49.408;8.702;2024-01-30T12:59:18;8.20;;;6.77;;
6902;SDS011;20232;49.408;8.702;2024-01-30T13:01:44;9.93;;;7.00;;
6902;SDS011;20232;49.408;8.702;2024-01-30T13:04:09;9.57;;;7.07;;
6902;SDS011;20232;49.408;8.702;2024-01-30T13:06:36;8.53;;;7.17;;
6902;SDS011;20232;49.408;8.702;2024-01-30T13:09:01;10.90;;;7.17;;
6902;SDS011;20232;49.408;8.702;2024-01-30T13:11:30;9.70;;;8.00;;
6902;SDS011;20232;49.408;8.702;2024-01-30T13:13:55;9.00;;;7.70;;
6902;SDS011;20232;49.408;8.702;2024-01-30T13:16:22;8.73;;;7.37;;
6902;SDS011;20232;49.408;8.702;2024-01-30T13:18:47;10.97;;;7.23;;
6902;SDS011;20232;49.408;8.702;2024-01-30T13:21:12;10.63;;;6.53;;
6902;SDS011;20232;49.408;8.702;2024-01-30T13:23:38;9.33;;;6.93;;
6902;SDS011;20232;49.408;8.702;2024-01-30T13:26:03;8.93;;;6.57;;
6902;SDS011;20232;49.408;8.702;2024-01-30T13:28:29;8.33;;;6.60;;
6902;SDS011;20232;49.408;8.702;2024-01-30T13:30:54;11.37;;;7.13;;
6902;SDS011;20232;49.408;8.702;2024-01-30T13:33:19;10.63;;;7.70;;
6902;SDS011;20232;49.408;8.702;2024-01-30T13:35:45;8.83;;;6.93;;
6902;SDS011;20232;49.408;8.702;2024-01-30T13:38:10;8.57;;;7.40;;
6902;SDS011;20232;49.408;8.702;2024-01-30T13:40:36;9.93;;;7.47;;
6902;SDS011;20232;49.408;8.702;2024-01-30T13:43:01;9.93;;;7.47;;
6902;SDS011;20232;49.408;8.702;2024-01-30T13:45:27;8.50;;;6.83;;
6902;SDS011;20232;49.408;8.702;2024-01-30T13:47:52;10.13;;;8.27;;
6902;SDS011;20232;49.408;8.702;2024-01-30T13:50:18;10.80;;;7.97;;
6902;SDS011;20232;49.408;8.702;2024-01-30T13:52:43;9.87;;;7.60;;
6902;SDS011;20232;49.408;8.702;2024-01-30T13:55:09;9.20;;;7.13;;
6902;SDS011;20232;49.408;8.702;2024-01-30T13:57:35;9.97;;;7.47;;
6902;SDS011;20232;49.408;8.702;2024-01-30T14:00:02;9.07;;;7.10;;
6902;SDS011;20232;49.408;8.702;2024-01-30T14:02:38;9.10;;;6.97;;
6902;SDS011;20232;49.408;8.702;2024-01-30T14:05:03;10.23;;;7.07;;
6902;SDS011;20232;49.408;8.702;2024-01-30T14:07:29;13.10;;;7.60;;
6902;SDS011;20232;49.408;8.702;2024-01-30T14:09:55;8.87;;;7.03;;
6902;SDS011;20232;49.408;8.702;2024-01-30T14:12:20;11.40;;;7.40;;
6902;SDS011;20232;49.408;8.702;2024-01-30T14:14:46;10.63;;;7.50;;
6902;SDS011;20232;49.408;8.702;2024-01-30T14:17:11;9.73;;;7.10;;
6902;SDS011;20232;49.408;8.702;2024-01-30T14:19:36;10.10;;;7.87;;
6902;SDS011;20232;49.408;8.702;2024-01-30T14:22:02;11.43;;;7.10;;
6902;SDS011;20232;49.408;8.702;2024-01-30T14:24:27;8.40;;;7.30;;
6902;SDS011;20232;49.408;8.702;2024-01-30T14:26:53;9.90;;;7.13;;
6902;SDS011;20232;49.408;8.702;2024-01-30T14:29:18;11.90;;;7.40;;
6902;SDS011;20232;49.408;8.702;2024-01-30T14:31:44;9.23;;;7.43;;
6902;SDS011;20232;49.408;8.702;2024-01-30T14:34:09;9.00;;;7.43;;
6902;SDS011;20232;49.408;8.702;2024-01-30T14:36:38;11.23;;;7.50;;
6902;SDS011;20232;49.408;8.702;2024-01-30T14:39:04;11.47;;;7.50;;
6902;SDS011;20232;49.408;8.702;2024-01-30T14:41:31;9.83;;;7.77;;
6902;SDS011;20232;49.408;8.702;2024-01-30T14:43:57;11.33;;;7.90;;
6902;SDS011;20232;49.408;8.702;2024-01-30T14:46:22;10.57;;;7.63;;
6902;SDS011;20232;49.408;8.702;2024-01-30T14:48:48;10.63;;;7.90;;
6902;SDS011;20232;49.408;8.702;2024-01-30T14:51:16;10.67;;;7.80;;
6902;SDS011;20232;49.408;8.702;2024-01-30T14:53:42;10.30;;;7.80;;
6902;SDS011;20232;49.408;8.702;2024-01-30T14:56:07;10.17;;;7.07;;
6902;SDS011;20232;49.408;8.702;2024-01-30T14:58:33;9.87;;;7.57;;
6902;SDS011;20232;49.408;8.702;2024-01-30T15:00:59;11.70;;;7.93;;
6902;SDS011;20232;49.408;8.702;2024-01-30T15:03:26;11.67;;;7.97;;
6902;SDS011;20232;49.408;8.702;2024-01-30T15:05:53;10.10;;;7.50;;
6902;SDS011;20232;49.408;8.702;2024-01-30T15:08:19;10.53;;;7.90;;
6902;SDS011;20232;49.408;8.702;2024-01-30T15:10:45;11.30;;;7.63;;
6902;SDS011;20232;49.408;8.702;2024-01-30T15:13:10;14.63;;;8.20;;
6902;SDS011;20232;49.408;8.702;2024-01-30T15:15:37;20.43;;;9.03;;
6902;SDS011;20232;49.408;8.702;2024-01-30T15:18:02;18.30;;;8.43;;
6902;SDS011;20232;49.408;8.702;2024-01-30T15:20:28;13.20;;;8.20;;
6902;SDS011;20232;49.408;8.702;2024-01-30T15:22:54;12.30;;;8.33;;
6902;SDS011;20232;49.408;8.702;2024-01-30T15:25:19;13.10;;;8.23;;
6902;SDS011;20232;49.408;8.702;2024-01-30T15:27:44;9.97;;;7.77;;
6902;SDS011;20232;49.408;8.702;2024-01-30T15:30:11;13.03;;;8.30;;
6902;SDS011;20232;49.408;8.702;2024-01-30T15:32:37;11.83;;;7.70;;
6902;SDS011;20232;49.408;8.702;2024-01-30T15:35:02;9.77;;;7.87;;
6902;SDS011;20232;49.408;8.702;2024-01-30T15:37:29;10.07;;;7.50;;
6902;SDS011;20232;49.408;8.702;2024-01-30T15:39:54;11.43;;;8.17;;
6902;SDS011;20232;49.408;8.702;2024-01-30T15:42:20;10.57;;;7.67;;
6902;SDS011;20232;49.408;8.702;2024-01-30T15:44:45;9.97;;;7.40;;
6902;SDS011;20232;49.408;8.702;2024-01-30T15:47:10;11.70;;;7.77;;
6902;SDS011;20232;49.408;8.702;2024-01-30T15:49:36;10.70;;;7.23;;
6902;SDS011;20232;49.408;8.702;2024-01-30T15:52:01;13.17;;;7.83;;
6902;SDS011;20232;49.408;8.702;2024-01-30T15:54:27;8.63;;;7.20;;
6902;SDS011;20232;49.408;8.702;2024-01-30T15:56:52;10.87;;;6.53;;
6902;SDS011;20232;49.408;8.702;2024-01-30T15:59:18;9.83;;;7.33;;
6902;SDS011;20232;49.408;8.702;2024-01-30T16:01:43;8.80;;;7.13;;
6902;SDS011;20232;49.408;8.702;2024-01-30T16:04:13;9.17;;;7.63;;
6902;SDS011;20232;49.408;8.702;2024-01-30T16:06:39;11.30;;;7.47;;
6902;SDS011;20232;49.408;8.702;2024-01-30T16:09:04;11.37;;;7.77;;
6902;SDS011;20232;49.408;8.702;2024-01-30T16:11:30;9.37;;;7.23;;
6902;SDS011;20232;49.408;8.702;2024-01-30T16:13:57;9.13;;;6.53;;
6902;SDS011;20232;49.408;8.702;2024-01-30T16:16:22;9.07;;;6.70;;
6902;SDS011;20232;49.408;8.702;2024-01-30T16:18:48;8.33;;;6.27;;
6902;SDS011;20232;49.408;8.702;2024-01-30T16:21:14;8.70;;;6.50;;
6902;SDS011;20232;49.408;8.702;2024-01-30T16:23:39;9.00;;;5.50;;
6902;SDS011;20232;49.408;8.702;2024-01-30T16:26:05;8.17;;;5.57;;
6902;SDS011;20232;49.408;8.702;2024-01-30T16:28:30;6.87;;;5.13;;
6902;SDS011;20232;49.408;8.702;2024-01-30T16:30:58;8.83;;;5.93;;
6902;SDS011;20232;49.408;8.702;2024-01-30T16:33:25;7.47;;;6.27;;
6902;SDS011;20232;49.408;8.702;2024-01-30T16:35:51;9.07;;;6.30;;
6902;SDS011;20232;49.408;8.702;2024-01-30T16:38:16;11.17;;;7.63;;
6902;SDS011;20232;49.408;8.702;2024-01-30T16:40:42;12.67;;;7.93;;
6902;SDS011;20232;49.408;8.702;2024-01-30T16:43:07;8.57;;;7.20;;
6902;SDS011;20232;49.408;8.702;2024-01-30T16:45:32;10.17;;;6.47;;
6902;SDS011;20232;49.408;8.702;2024-01-30T16:47:58;9.97;;;7.87;;
6902;SDS011;20232;49.408;8.702;2024-01-30T16:50:23;9.60;;;7.67;;
6902;SDS011;20232;49.408;8.702;2024-01-30T16:52:49;12.50;;;7.40;;
6902;SDS011;20232;49.408;8.702;2024-01-30T16:55:14;9.53;;;7.20;;
6902;SDS011;20232;49.408;8.702;2024-01-30T16:57:39;10.03;;;5.83;;
6902;SDS011;20232;49.408;8.702;2024-01-30T17:00:05;9.53;;;5.63;;
6902;SDS011;20232;49.408;8.702;2024-01-30T17:02:31;8.97;;;6.07;;
6902;SDS011;20232;49.408;8.702;2024-01-30T17:04:56;10.90;;;5.80;;
6902;SDS011;20232;49.408;8.702;2024-01-30T17:07:23;6.70;;;5.63;;
6902;SDS011;20232;49.408;8.702;2024-01-30T17:09:49;10.83;;;6.27;;
6902;SDS011;20232;49.408;8.702;2024-01-30T17:12:14;8.00;;;5.17;;
6902;SDS011;20232;49.408;8.702;2024-01-30T17:14:40;7.13;;;5.57;;
6902;SDS011;20232;49.408;8.702;2024-01-30T17:17:06;8.67;;;5.30;;
6902;SDS011;20232;49.408;8.702;2024-01-30T17:19:34;7.97;;;5.60;;
6902;SDS011;20232;49.408;8.702;2024-01-30T17:21:59;6.43;;;5.50;;
6902;SDS011;20232;49.408;8.702;2024-01-30T17:24:25;6.47;;;5.20;;
6902;SDS011;20232;49.408;8.702;2024-01-30T17:26:50;7.60;;;5.27;;
6902;SDS011;20232;49.408;8.702;2024-01-30T17:29:16;6.27;;;5.10;;
6902;SDS011;20232;49.408;8.702;2024-01-30T17:31:41;6.70;;;5.27;;
6902;SDS011;20232;49.408;8.702;2024-01-30T17:34:09;10.00;;;6.27;;
6902;SDS011;20232;49.408;8.702;2024-01-30T17:36:35;11.67;;;7.10;;
6902;SDS011;20232;49.408;8.702;2024-01-30T17:39:00;7.27;;;5.33;;
6902;SDS011;20232;49.408;8.702;2024-01-30T17:41:26;7.57;;;5.73;;
6902;SDS011;20232;49.408;8.702;2024-01-30T17:43:51;10.00;;;6.60;;
6902;SDS011;20232;49.408;8.702;2024-01-30T17:46:17;8.20;;;5.87;;
6902;SDS011;20232;49.408;8.702;2024-01-30T17:48:43;9.10;;;6.30;;
6902;SDS011;20232;49.408;8.702;2024-01-30T17:51:08;9.20;;;7.03;;
6902;SDS011;20232;49.408;8.702;2024-01-30T17:53:34;10.93;;;6.60;;
6902;SDS011;20232;49.408;8.702;2024-01-30T17:55:59;8.93;;;6.77;;
6902;SDS011;20232;49.408;8.702;2024-01-30T17:58:30;9.57;;;7.17;;
6902;SDS011;20232;49.408;8.702;2024-01-30T18:00:55;11.30;;;7.03;;
6902;SDS011;20232;49.408;8.702;2024-01-30T18:03:22;12.27;;;7.70;;
6902;SDS011;20232;49.408;8.702;2024-01-30T18:05:48;12.60;;;8.67;;
6902;SDS011;20232;49.408;8.702;2024-01-30T18:08:13;18.77;;;11.43;;
6902;SDS011;20232;49.408;8.702;2024-01-30T18:10:39;15.23;;;10.00;;
6902;SDS011;20232;49.408;8.702;2024-01-30T18:13:04;21.00;;;13.33;;
6902;SDS011;20232;49.408;8.702;2024-01-30T18:15:30;11.93;;;9.43;;
6902;SDS011;20232;49.408;8.702;2024-01-30T18:17:56;17.87;;;11.20;;
6902;SDS011;20232;49.408;8.702;2024-01-30T18:20:21;11.73;;;9.70;;
6902;SDS011;20232;49.408;8.702;2024-01-30T18:22:47;15.90;;;9.47;;
6902;SDS011;20232;49.408;8.702;2024-01-30T18:25:12;16.80;;;9.40;;
6902;SDS011;20232;49.408;8.702;2024-01-30T18:27:38;11.73;;;7.87;;
6902;SDS011;20232;49.408;8.702;2024-01-30T18:30:03;11.33;;;8.30;;
6902;SDS011;20232;49.408;8.702;2024-01-30T18:32:29;20.97;;;8.40;;
6902;SDS011;20232;49.408;8.702;2024-01-30T18:34:55;12.97;;;8.23;;
6902;SDS011;20232;49.408;8.702;2024-01-30T18:37:20;8.27;;;7.37;;
6902;SDS011;20232;49.408;8.702;2024-01-30T18:39:45;10.43;;;7.97;;
6902;SDS011;20232;49.408;8.702;2024-01-30T18:42:11;10.43;;;8.13;;
6902;SDS011;20232;49.408;8.702;2024-01-30T18:44:36;9.80;;;7.13;;
6902;SDS011;20232;49.408;8.702;2024-01-30T18:47:02;9.57;;;7.13;;
6902;SDS011;20232;49.408;8.702;2024-01-30T18:49:27;8.90;;;6.67;;
6902;SDS011;20232;49.408;8.702;2024-01-30T18:51:53;11.43;;;7.57;;
6902;SDS011;20232;49.408;8.702;2024-01-30T18:54:20;8.23;;;7.13;;
6902;SDS011;20232;49.408;8.702;2024-01-30T18:56:45;8.57;;;7.00;;
6902;SDS011;20232;49.408;8.702;2024-01-30T18:59:11;11.73;;;7.63;;
6902;SDS011;20232;49.408;8.702;2024-01-30T19:01:42;10.43;;;7.70;;
6902;SDS011;20232;49.408;8.702;2024-01-30T19:04:10;10.13;;;8.03;;
6902;SDS011;20232;49.408;8.702;2024-01-30T19:06:36;14.43;;;8.07;;
6902;SDS011;20232;49.408;8.702;2024-01-30T19:09:02;11.87;;;7.63;;
6902;SDS011;20232;49.408;8.702;2024-01-30T19:11:30;9.57;;;7.63;;
6902;SDS011;20232;49.408;8.702;2024-01-30T19:13:55;10.97;;;7.03;;
6902;SDS011;20232;49.408;8.702;2024-01-30T19:16:21;9.73;;;6.87;;
6902;SDS011;20232;49.408;8.702;2024-01-30T19:18:46;10.93;;;7.87;;
6902;SDS011;20232;49.408;8.702;2024-01-30T19:21:14;11.83;;;7.90;;
6902;SDS011;20232;49.408;8.702;2024-01-30T19:23:39;9.57;;;7.73;;
6902;SDS011;20232;49.408;8.702;2024-01-30T19:26:06;11.30;;;7.50;;
6902;SDS011;20232;49.408;8.702;2024-01-30T19:28:32;10.63;;;8.03;;
6902;SDS011;20232;49.408;8.702;2024-01-30T19:30:57;9.33;;;7.77;;
6902;SDS011;20232;49.408;8.702;2024-01-30T19:33:25;11.53;;;8.03;;
6902;SDS011;20232;49.408;8.702;2024-01-30T19:35:54;11.97;;;8.13;;
6902;SDS011;20232;49.408;8.702;2024-01-30T19:38:19;9.97;;;7.53;;
6902;SDS011;20232;49.408;8.702;2024-01-30T19:40:44;9.57;;;7.30;;
6902;SDS011;20232;49.408;8.702;2024-01-30T19:43:10;9.30;;;7.73;;
6902;SDS011;20232;49.408;8.702;2024-01-30T19:45:35;10.47;;;7.90;;
6902;SDS011;20232;49.408;8.702;2024-01-30T19:48:01;11.37;;;8.13;;